sensor_id;sensor_type;location;lat;lon;timestamp;pressure;altitude;pressure_sealevel;temperature;humidity
38630;BME280;24384;51.988;4.644;2023-01-24T00:01:20;104047.13;;;3.35;83.07
38630;BME280;24384;51.988;4.644;2023-01-24T00:03:46;104052.63;;;3.41;81.94
38630;BME280;24384;51.988;4.644;2023-01-24T00:06:12;104040.66;;;3.27;80.88
38630;BME280;24384;51.988;4.644;2023-01-24T00:08:37;104045.66;;;3.22;81.87
38630;BME280;24384;51.988;4.644;2023-01-24T00:11:05;104045.06;;;3.28;80.58
38630;BME280;24384;51.988;4.644;2023-01-24T00:13:31;104046.16;;;3.33;80.61
38630;BME280;24384;51.988;4.644;2023-01-24T00:18:31;104040.44;;;3.40;80.82
38630;BME280;24384;51.988;4.644;2023-01-24T00:21:02;104035.06;;;3.37;81.11
38630;BME280;24384;51.988;4.644;2023-01-24T00:23:28;104044.00;;;3.42;80.94
38630;BME280;24384;51.988;4.644;2023-01-24T00:25:53;104040.28;;;3.37;80.27
38630;BME280;24384;51.988;4.644;2023-01-24T00:28:18;104042.19;;;3.41;80.88
38630;BME280;24384;51.988;4.644;2023-01-24T00:30:44;104036.19;;;3.42;81.09
38630;BME280;24384;51.988;4.644;2023-01-24T00:33:09;104046.75;;;3.45;78.23
38630;BME280;24384;51.988;4.644;2023-01-24T00:35:34;104037.53;;;3.34;81.27
38630;BME280;24384;51.988;4.644;2023-01-24T00:37:59;104042.53;;;3.29;80.18
38630;BME280;24384;51.988;4.644;2023-01-24T00:40:25;104048.63;;;3.30;82.96
38630;BME280;24384;51.988;4.644;2023-01-24T00:42:50;104042.69;;;3.32;82.20
38630;BME280;24384;51.988;4.644;2023-01-24T00:45:16;104041.97;;;3.36;81.50
38630;BME280;24384;51.988;4.644;2023-01-24T00:47:42;104033.56;;;3.42;80.36
38630;BME280;24384;51.988;4.644;2023-01-24T00:50:07;104038.34;;;3.33;79.70
38630;BME280;24384;51.988;4.644;2023-01-24T00:52:32;104038.34;;;3.33;82.59
38630;BME280;24384;51.988;4.644;2023-01-24T00:54:58;104034.78;;;3.31;81.21
38630;BME280;24384;51.988;4.644;2023-01-24T00:57:23;104028.41;;;3.26;82.20
38630;BME280;24384;51.988;4.644;2023-01-24T00:59:49;104025.88;;;3.27;82.19
38630;BME280;24384;51.988;4.644;2023-01-24T01:02:14;104023.13;;;3.24;81.64
38630;BME280;24384;51.988;4.644;2023-01-24T01:04:40;104023.59;;;3.15;84.19
38630;BME280;24384;51.988;4.644;2023-01-24T01:07:06;104022.47;;;3.10;82.46
38630;BME280;24384;51.988;4.644;2023-01-24T01:09:31;104026.56;;;3.05;81.78
38630;BME280;24384;51.988;4.644;2023-01-24T01:11:57;104020.47;;;3.04;82.20
38630;BME280;24384;51.988;4.644;2023-01-24T01:14:22;104025.59;;;3.03;81.54
38630;BME280;24384;51.988;4.644;2023-01-24T01:16:47;104016.34;;;3.10;82.98
38630;BME280;24384;51.988;4.644;2023-01-24T01:19:12;104013.44;;;3.03;82.58
38630;BME280;24384;51.988;4.644;2023-01-24T01:21:38;104019.41;;;3.01;82.54
38630;BME280;24384;51.988;4.644;2023-01-24T01:24:03;104013.53;;;3.05;82.25
38630;BME280;24384;51.988;4.644;2023-01-24T01:26:28;104013.22;;;2.99;81.93
38630;BME280;24384;51.988;4.644;2023-01-24T01:28:54;104014.25;;;3.02;82.86
38630;BME280;24384;51.988;4.644;2023-01-24T01:31:19;104019.56;;;3.04;82.86
38630;BME280;24384;51.988;4.644;2023-01-24T01:33:44;104014.34;;;3.04;83.02
38630;BME280;24384;51.988;4.644;2023-01-24T01:36:10;104019.84;;;3.10;81.60
38630;BME280;24384;51.988;4.644;2023-01-24T01:38:35;104011.22;;;3.11;80.98
38630;BME280;24384;51.988;4.644;2023-01-24T01:41:00;104014.13;;;3.17;79.84
38630;BME280;24384;51.988;4.644;2023-01-24T01:43:29;104007.81;;;3.12;81.31
38630;BME280;24384;51.988;4.644;2023-01-24T01:45:58;104008.97;;;3.19;80.90
38630;BME280;24384;51.988;4.644;2023-01-24T01:48:37;104006.31;;;3.17;80.68
38630;BME280;24384;51.988;4.644;2023-01-24T01:51:17;103999.13;;;3.13;82.03
38630;BME280;24384;51.988;4.644;2023-01-24T01:53:49;104001.88;;;3.16;79.97
38630;BME280;24384;51.988;4.644;2023-01-24T01:56:36;103997.06;;;3.06;82.38
38630;BME280;24384;51.988;4.644;2023-01-24T01:59:07;104001.66;;;3.12;80.92
38630;BME280;24384;51.988;4.644;2023-01-24T02:01:34;104005.56;;;3.20;80.16
38630;BME280;24384;51.988;4.644;2023-01-24T02:04:13;104006.81;;;3.10;83.50
38630;BME280;24384;51.988;4.644;2023-01-24T02:07:01;104003.59;;;2.98;80.20
38630;BME280;24384;51.988;4.644;2023-01-24T02:09:29;103998.84;;;3.07;80.98
38630;BME280;24384;51.988;4.644;2023-01-24T02:12:00;103997.06;;;3.06;82.25
38630;BME280;24384;51.988;4.644;2023-01-24T02:14:26;103999.69;;;3.06;82.16
38630;BME280;24384;51.988;4.644;2023-01-24T02:17:11;103995.94;;;3.01;82.08
38630;BME280;24384;51.988;4.644;2023-01-24T02:19:42;104002.50;;;2.93;80.41
38630;BME280;24384;51.988;4.644;2023-01-24T02:22:22;104000.50;;;3.05;81.52
38630;BME280;24384;51.988;4.644;2023-01-24T02:24:59;104000.03;;;2.96;79.91
38630;BME280;24384;51.988;4.644;2023-01-24T02:27:26;104007.34;;;3.03;81.83
38630;BME280;24384;51.988;4.644;2023-01-24T02:29:53;104009.88;;;3.01;80.81
38630;BME280;24384;51.988;4.644;2023-01-24T02:32:18;104000.41;;;3.03;80.82
38630;BME280;24384;51.988;4.644;2023-01-24T02:34:46;104005.84;;;3.08;80.53
38630;BME280;24384;51.988;4.644;2023-01-24T02:37:13;104002.22;;;3.04;79.86
38630;BME280;24384;51.988;4.644;2023-01-24T02:39:42;104005.25;;;2.96;79.21
38630;BME280;24384;51.988;4.644;2023-01-24T02:42:12;104000.03;;;2.96;80.32
38630;BME280;24384;51.988;4.644;2023-01-24T02:47:12;104003.59;;;2.98;81.14
38630;BME280;24384;51.988;4.644;2023-01-24T02:49:38;104002.34;;;2.90;81.30
38630;BME280;24384;51.988;4.644;2023-01-24T02:52:03;103998.25;;;2.95;82.09
38630;BME280;24384;51.988;4.644;2023-01-24T02:54:47;103994.81;;;2.96;80.47
38630;BME280;24384;51.988;4.644;2023-01-24T02:57:12;103996.63;;;2.97;81.28
38630;BME280;24384;51.988;4.644;2023-01-24T02:59:56;104000.69;;;2.92;79.88
38630;BME280;24384;51.988;4.644;2023-01-24T03:02:22;104000.53;;;2.89;81.66
38630;BME280;24384;51.988;4.644;2023-01-24T03:04:47;103999.81;;;2.91;83.64
38630;BME280;24384;51.988;4.644;2023-01-24T03:07:13;103997.63;;;2.82;82.31
38630;BME280;24384;51.988;4.644;2023-01-24T03:09:38;103995.09;;;2.84;83.53
38630;BME280;24384;51.988;4.644;2023-01-24T03:12:11;103996.16;;;2.88;81.11
38630;BME280;24384;51.988;4.644;2023-01-24T03:14:55;103991.09;;;2.91;82.02
38630;BME280;24384;51.988;4.644;2023-01-24T03:17:39;103996.16;;;2.88;81.69
38630;BME280;24384;51.988;4.644;2023-01-24T03:20:23;103998.63;;;2.84;83.31
38630;BME280;24384;51.988;4.644;2023-01-24T03:23:09;103989.06;;;2.85;82.27
38630;BME280;24384;51.988;4.644;2023-01-24T03:25:54;103992.72;;;2.89;81.27
38630;BME280;24384;51.988;4.644;2023-01-24T03:28:39;103993.72;;;2.91;83.68
38630;BME280;24384;51.988;4.644;2023-01-24T03:31:23;103986.41;;;2.83;83.16
38630;BME280;24384;51.988;4.644;2023-01-24T03:34:07;103999.03;;;2.76;83.57
38630;BME280;24384;51.988;4.644;2023-01-24T03:36:51;103988.38;;;2.71;84.42
38630;BME280;24384;51.988;4.644;2023-01-24T03:39:17;103995.41;;;2.72;82.96
38630;BME280;24384;51.988;4.644;2023-01-24T03:42:01;103990.13;;;2.71;84.23
38630;BME280;24384;51.988;4.644;2023-01-24T03:44:26;103979.69;;;2.71;83.75
38630;BME280;24384;51.988;4.644;2023-01-24T03:46:51;103992.78;;;2.72;81.61
38630;BME280;24384;51.988;4.644;2023-01-24T03:49:16;103983.47;;;2.77;82.86
38630;BME280;24384;51.988;4.644;2023-01-24T03:51:42;103984.28;;;2.76;82.94
38630;BME280;24384;51.988;4.644;2023-01-24T03:54:26;103990.81;;;2.84;81.72
38630;BME280;24384;51.988;4.644;2023-01-24T03:56:51;103995.03;;;2.82;81.25
38630;BME280;24384;51.988;4.644;2023-01-24T03:59:17;104001.00;;;2.80;81.12
38630;BME280;24384;51.988;4.644;2023-01-24T04:01:42;103993.56;;;2.88;80.47
38630;BME280;24384;51.988;4.644;2023-01-24T04:04:07;103999.72;;;2.90;80.98
38630;BME280;24384;51.988;4.644;2023-01-24T04:06:32;104002.34;;;2.90;80.51
38630;BME280;24384;51.988;4.644;2023-01-24T04:08:58;103992.94;;;2.93;81.71
38630;BME280;24384;51.988;4.644;2023-01-24T04:11:23;103992.25;;;2.79;81.46
38630;BME280;24384;51.988;4.644;2023-01-24T04:13:48;103992.09;;;2.76;82.33
38630;BME280;24384;51.988;4.644;2023-01-24T04:16:13;103996.13;;;2.69;83.96
38630;BME280;24384;51.988;4.644;2023-01-24T04:18:40;103986.13;;;2.61;82.90
38630;BME280;24384;51.988;4.644;2023-01-24T04:21:05;103993.53;;;2.69;82.67
38630;BME280;24384;51.988;4.644;2023-01-24T04:23:30;103989.50;;;2.58;83.81
38630;BME280;24384;51.988;4.644;2023-01-24T04:25:56;104001.03;;;2.63;83.02
38630;BME280;24384;51.988;4.644;2023-01-24T04:28:25;103992.72;;;2.71;82.54
38630;BME280;24384;51.988;4.644;2023-01-24T04:31:01;103985.16;;;2.59;82.00
38630;BME280;24384;51.988;4.644;2023-01-24T04:33:27;103986.22;;;2.62;83.45
38630;BME280;24384;51.988;4.644;2023-01-24T04:35:56;103981.84;;;2.61;82.02
38630;BME280;24384;51.988;4.644;2023-01-24T04:38:22;103986.28;;;2.64;81.18
38630;BME280;24384;51.988;4.644;2023-01-24T04:40:55;103986.16;;;2.79;79.64
38630;BME280;24384;51.988;4.644;2023-01-24T04:43:20;104000.63;;;2.72;80.04
38630;BME280;24384;51.988;4.644;2023-01-24T04:45:46;103992.25;;;2.61;81.33
38630;BME280;24384;51.988;4.644;2023-01-24T04:48:11;103997.69;;;2.66;80.03
38630;BME280;24384;51.988;4.644;2023-01-24T04:50:36;103996.56;;;2.61;82.77
38630;BME280;24384;51.988;4.644;2023-01-24T04:53:01;104006.41;;;2.66;82.56
38630;BME280;24384;51.988;4.644;2023-01-24T04:55:27;104000.38;;;2.67;82.07
38630;BME280;24384;51.988;4.644;2023-01-24T04:57:52;103999.31;;;2.64;82.13
38630;BME280;24384;51.988;4.644;2023-01-24T05:00:17;104007.59;;;2.73;81.43
38630;BME280;24384;51.988;4.644;2023-01-24T05:02:43;104017.06;;;2.71;81.42
38630;BME280;24384;51.988;4.644;2023-01-24T05:05:08;104013.19;;;2.63;82.92
38630;BME280;24384;51.988;4.644;2023-01-24T05:07:33;104017.06;;;2.71;82.02
38630;BME280;24384;51.988;4.644;2023-01-24T05:09:58;104017.94;;;2.72;81.97
38630;BME280;24384;51.988;4.644;2023-01-24T05:12:24;104022.78;;;2.64;80.81
38630;BME280;24384;51.988;4.644;2023-01-24T05:14:49;104016.91;;;2.68;81.44
38630;BME280;24384;51.988;4.644;2023-01-24T05:17:14;104013.41;;;2.67;83.04
38630;BME280;24384;51.988;4.644;2023-01-24T05:19:41;104013.41;;;2.67;83.23
38630;BME280;24384;51.988;4.644;2023-01-24T05:22:06;104018.31;;;2.61;84.79
38630;BME280;24384;51.988;4.644;2023-01-24T05:24:32;104010.50;;;2.61;84.28
38630;BME280;24384;51.988;4.644;2023-01-24T05:26:57;104017.72;;;2.67;81.77
38630;BME280;24384;51.988;4.644;2023-01-24T05:29:22;104009.75;;;2.64;81.30
38630;BME280;24384;51.988;4.644;2023-01-24T05:31:47;104018.63;;;2.67;80.80
38630;BME280;24384;51.988;4.644;2023-01-24T05:34:13;104024.88;;;2.71;82.16
38630;BME280;24384;51.988;4.644;2023-01-24T05:36:38;104035.81;;;2.64;81.80
38630;BME280;24384;51.988;4.644;2023-01-24T05:39:03;104024.09;;;2.56;81.22
38630;BME280;24384;51.988;4.644;2023-01-24T05:41:28;104026.72;;;2.56;83.42
38630;BME280;24384;51.988;4.644;2023-01-24T05:43:54;104024.66;;;2.50;83.81
38630;BME280;24384;51.988;4.644;2023-01-24T05:46:23;104027.50;;;2.55;84.39
38630;BME280;24384;51.988;4.644;2023-01-24T05:48:48;104029.38;;;2.57;82.21
38630;BME280;24384;51.988;4.644;2023-01-24T05:51:16;104036.91;;;2.51;82.24
38630;BME280;24384;51.988;4.644;2023-01-24T05:53:42;104036.97;;;2.53;82.64
38630;BME280;24384;51.988;4.644;2023-01-24T05:56:13;104041.63;;;2.58;81.67
38630;BME280;24384;51.988;4.644;2023-01-24T05:58:39;104040.47;;;2.53;80.41
38630;BME280;24384;51.988;4.644;2023-01-24T06:01:16;104037.94;;;2.55;79.84
38630;BME280;24384;51.988;4.644;2023-01-24T06:03:43;104033.78;;;2.58;80.32
38630;BME280;24384;51.988;4.644;2023-01-24T06:06:10;104034.59;;;2.57;82.81
38630;BME280;24384;51.988;4.644;2023-01-24T06:08:37;104031.19;;;2.58;81.86
38630;BME280;24384;51.988;4.644;2023-01-24T06:11:09;104037.28;;;2.59;83.27
38630;BME280;24384;51.988;4.644;2023-01-24T06:13:34;104038.09;;;2.58;82.76
38630;BME280;24384;51.988;4.644;2023-01-24T06:16:03;104042.19;;;2.53;81.55
38630;BME280;24384;51.988;4.644;2023-01-24T06:18:29;104043.00;;;2.51;82.78
38630;BME280;24384;51.988;4.644;2023-01-24T06:20:55;104043.66;;;2.47;82.41
38630;BME280;24384;51.988;4.644;2023-01-24T06:23:26;104044.47;;;2.46;83.33
38630;BME280;24384;51.988;4.644;2023-01-24T06:25:53;104046.13;;;2.44;82.34
38630;BME280;24384;51.988;4.644;2023-01-24T06:28:19;104049.84;;;2.49;82.45
38630;BME280;24384;51.988;4.644;2023-01-24T06:30:49;104044.31;;;2.43;83.55
38630;BME280;24384;51.988;4.644;2023-01-24T06:33:30;104050.47;;;2.45;82.00
38630;BME280;24384;51.988;4.644;2023-01-24T06:38:24;104050.56;;;2.47;81.64
38630;BME280;24384;51.988;4.644;2023-01-24T06:40:53;104061.66;;;2.43;82.30
38630;BME280;24384;51.988;4.644;2023-01-24T06:43:21;104061.34;;;2.37;83.64
38630;BME280;24384;51.988;4.644;2023-01-24T06:45:46;104069.06;;;2.35;83.03
38630;BME280;24384;51.988;4.644;2023-01-24T06:48:12;104059.06;;;2.43;83.70
38630;BME280;24384;51.988;4.644;2023-01-24T06:50:37;104065.56;;;2.35;82.21
38630;BME280;24384;51.988;4.644;2023-01-24T06:53:02;104063.88;;;2.35;81.88
38630;BME280;24384;51.988;4.644;2023-01-24T06:55:28;104071.91;;;2.40;82.76
38630;BME280;24384;51.988;4.644;2023-01-24T06:57:55;104062.22;;;2.37;84.06
38630;BME280;24384;51.988;4.644;2023-01-24T07:00:21;104069.00;;;2.33;82.98
38630;BME280;24384;51.988;4.644;2023-01-24T07:02:46;104064.44;;;2.29;83.30
38630;BME280;24384;51.988;4.644;2023-01-24T07:05:11;104056.84;;;2.34;82.80
38630;BME280;24384;51.988;4.644;2023-01-24T07:07:38;104066.47;;;2.35;82.02
38630;BME280;24384;51.988;4.644;2023-01-24T07:10:03;104068.00;;;2.31;81.68
38630;BME280;24384;51.988;4.644;2023-01-24T07:12:29;104067.66;;;2.25;82.28
38630;BME280;24384;51.988;4.644;2023-01-24T07:14:54;104061.75;;;2.28;84.99
38630;BME280;24384;51.988;4.644;2023-01-24T07:17:19;104070.53;;;2.30;83.20
38630;BME280;24384;51.988;4.644;2023-01-24T07:19:45;104064.66;;;2.34;82.25
38630;BME280;24384;51.988;4.644;2023-01-24T07:22:11;104078.00;;;2.24;83.07
38630;BME280;24384;51.988;4.644;2023-01-24T07:24:37;104079.25;;;2.30;82.79
38630;BME280;24384;51.988;4.644;2023-01-24T07:27:03;104071.53;;;2.32;82.67
38630;BME280;24384;51.988;4.644;2023-01-24T07:29:28;104079.09;;;2.27;83.47
38630;BME280;24384;51.988;4.644;2023-01-24T07:31:53;104079.97;;;2.28;83.20
38630;BME280;24384;51.988;4.644;2023-01-24T07:34:19;104079.00;;;2.26;83.34
38630;BME280;24384;51.988;4.644;2023-01-24T07:36:45;104077.59;;;2.16;84.01
38630;BME280;24384;51.988;4.644;2023-01-24T07:39:10;104087.38;;;2.20;83.08
38630;BME280;24384;51.988;4.644;2023-01-24T07:41:36;104100.31;;;2.19;83.30
38630;BME280;24384;51.988;4.644;2023-01-24T07:44:02;104092.75;;;2.23;81.04
38630;BME280;24384;51.988;4.644;2023-01-24T07:46:31;104085.34;;;2.31;81.51
38630;BME280;24384;51.988;4.644;2023-01-24T07:48:56;104096.72;;;2.33;81.19
38630;BME280;24384;51.988;4.644;2023-01-24T07:51:21;104092.34;;;2.32;82.10
38630;BME280;24384;51.988;4.644;2023-01-24T07:53:47;104100.66;;;2.25;83.46
38630;BME280;24384;51.988;4.644;2023-01-24T07:56:12;104097.41;;;2.29;83.20
38630;BME280;24384;51.988;4.644;2023-01-24T07:58:40;104100.81;;;2.28;82.93
38630;BME280;24384;51.988;4.644;2023-01-24T08:01:05;104104.88;;;2.23;84.21
38630;BME280;24384;51.988;4.644;2023-01-24T08:03:31;104099.75;;;2.24;85.60
38630;BME280;24384;51.988;4.644;2023-01-24T08:05:56;104105.53;;;2.19;84.38
38630;BME280;24384;51.988;4.644;2023-01-24T08:08:21;104114.47;;;2.24;83.61
38630;BME280;24384;51.988;4.644;2023-01-24T08:10:46;104116.09;;;2.22;82.96
38630;BME280;24384;51.988;4.644;2023-01-24T08:13:12;104109.84;;;2.18;81.81
38630;BME280;24384;51.988;4.644;2023-01-24T08:15:37;104111.06;;;2.25;81.48
38630;BME280;24384;51.988;4.644;2023-01-24T08:18:02;104117.16;;;2.25;80.81
38630;BME280;24384;51.988;4.644;2023-01-24T08:20:28;104108.22;;;2.20;81.65
38630;BME280;24384;51.988;4.644;2023-01-24T08:22:54;104113.59;;;2.23;82.96
38630;BME280;24384;51.988;4.644;2023-01-24T08:25:21;104110.34;;;2.27;81.84
38630;BME280;24384;51.988;4.644;2023-01-24T08:27:46;104115.97;;;2.35;81.50
38630;BME280;24384;51.988;4.644;2023-01-24T08:30:11;104117.66;;;2.35;82.29
38630;BME280;24384;51.988;4.644;2023-01-24T08:32:37;104120.09;;;2.31;81.94
38630;BME280;24384;51.988;4.644;2023-01-24T08:35:03;104122.53;;;2.28;81.57
38630;BME280;24384;51.988;4.644;2023-01-24T08:37:28;104125.22;;;2.30;83.11
38630;BME280;24384;51.988;4.644;2023-01-24T08:39:54;104130.84;;;2.38;82.81
38630;BME280;24384;51.988;4.644;2023-01-24T08:42:23;104136.06;;;2.38;82.52
38630;BME280;24384;51.988;4.644;2023-01-24T08:44:49;104130.94;;;2.23;82.63
38630;BME280;24384;51.988;4.644;2023-01-24T08:47:14;104127.03;;;2.31;82.94
38630;BME280;24384;51.988;4.644;2023-01-24T08:49:39;104128.00;;;2.33;81.62
38630;BME280;24384;51.988;4.644;2023-01-24T08:52:05;104134.03;;;2.32;81.46
38630;BME280;24384;51.988;4.644;2023-01-24T08:54:31;104130.09;;;2.24;81.69
38630;BME280;24384;51.988;4.644;2023-01-24T08:57:04;104130.25;;;2.27;81.72
38630;BME280;24384;51.988;4.644;2023-01-24T08:59:30;104131.59;;;2.35;81.89
38630;BME280;24384;51.988;4.644;2023-01-24T09:01:55;104133.19;;;2.33;82.06
38630;BME280;24384;51.988;4.644;2023-01-24T09:04:21;104140.53;;;2.40;82.37
38630;BME280;24384;51.988;4.644;2023-01-24T09:06:46;104146.56;;;2.39;83.10
38630;BME280;24384;51.988;4.644;2023-01-24T09:09:12;104141.69;;;2.45;82.43
38630;BME280;24384;51.988;4.644;2023-01-24T09:11:37;104140.63;;;2.42;82.32
38630;BME280;24384;51.988;4.644;2023-01-24T09:14:03;104141.19;;;2.36;80.93
38630;BME280;24384;51.988;4.644;2023-01-24T09:16:28;104142.81;;;2.34;82.74
38630;BME280;24384;51.988;4.644;2023-01-24T09:18:54;104141.59;;;2.27;83.58
38630;BME280;24384;51.988;4.644;2023-01-24T09:21:20;104142.31;;;2.25;84.82
38630;BME280;24384;51.988;4.644;2023-01-24T09:23:46;104148.75;;;2.31;84.19
38630;BME280;24384;51.988;4.644;2023-01-24T09:26:12;104155.69;;;2.31;83.40
38630;BME280;24384;51.988;4.644;2023-01-24T09:28:37;104160.81;;;2.29;82.70
38630;BME280;24384;51.988;4.644;2023-01-24T09:31:03;104153.97;;;2.31;83.73
38630;BME280;24384;51.988;4.644;2023-01-24T09:33:28;104158.50;;;2.19;81.47
38630;BME280;24384;51.988;4.644;2023-01-24T09:35:55;104155.34;;;2.25;81.96
38630;BME280;24384;51.988;4.644;2023-01-24T09:38:22;104159.91;;;2.29;82.32
38630;BME280;24384;51.988;4.644;2023-01-24T09:41:11;104152.09;;;2.29;83.50
38630;BME280;24384;51.988;4.644;2023-01-24T09:48:49;104171.78;;;2.24;83.76
38630;BME280;24384;51.988;4.644;2023-01-24T09:51:26;104168.19;;;2.22;84.64
38630;BME280;24384;51.988;4.644;2023-01-24T09:53:57;104174.63;;;2.12;83.79
38630;BME280;24384;51.988;4.644;2023-01-24T09:56:33;104163.03;;;2.07;84.15
38630;BME280;24384;51.988;4.644;2023-01-24T09:59:09;104177.38;;;2.15;84.20
38630;BME280;24384;51.988;4.644;2023-01-24T10:01:38;104176.00;;;2.22;84.11
38630;BME280;24384;51.988;4.644;2023-01-24T10:04:13;104174.13;;;2.19;83.14
38630;BME280;24384;51.988;4.644;2023-01-24T10:06:41;104187.91;;;2.17;83.84
38630;BME280;24384;51.988;4.644;2023-01-24T10:09:17;104185.47;;;2.20;84.29
38630;BME280;24384;51.988;4.644;2023-01-24T10:20:28;104173.16;;;2.17;84.37
38630;BME280;24384;51.988;4.644;2023-01-24T10:23:12;104173.31;;;2.20;83.37
38630;BME280;24384;51.988;4.644;2023-01-24T10:25:52;104176.72;;;2.19;83.51
38630;BME280;24384;51.988;4.644;2023-01-24T10:28:26;104182.84;;;2.20;83.16
38630;BME280;24384;51.988;4.644;2023-01-24T10:31:07;104179.84;;;2.28;83.26
38630;BME280;24384;51.988;4.644;2023-01-24T10:33:48;104173.91;;;2.31;83.45
38630;BME280;24384;51.988;4.644;2023-01-24T10:36:39;104164.78;;;2.39;83.42
38630;BME280;24384;51.988;4.644;2023-01-24T10:39:11;104168.22;;;2.38;82.94
38630;BME280;24384;51.988;4.644;2023-01-24T10:41:37;104169.44;;;2.45;82.64
38630;BME280;24384;51.988;4.644;2023-01-24T10:44:09;104162.84;;;2.51;82.04
38630;BME280;24384;51.988;4.644;2023-01-24T10:46:59;104170.66;;;2.51;81.40
38630;BME280;24384;51.988;4.644;2023-01-24T10:49:36;104162.22;;;2.56;80.99
38630;BME280;24384;51.988;4.644;2023-01-24T10:54:49;104152.03;;;2.60;80.93
38630;BME280;24384;51.988;4.644;2023-01-24T10:57:39;104154.06;;;2.66;81.17
38630;BME280;24384;51.988;4.644;2023-01-24T11:00:29;104150.56;;;2.65;82.76
38630;BME280;24384;51.988;4.644;2023-01-24T11:03:17;104157.31;;;2.62;82.87
38630;BME280;24384;51.988;4.644;2023-01-24T11:05:47;104152.91;;;2.61;82.37
38630;BME280;24384;51.988;4.644;2023-01-24T11:08:18;104149.50;;;2.62;81.05
38630;BME280;24384;51.988;4.644;2023-01-24T11:10:44;104138.69;;;2.54;81.39
38630;BME280;24384;51.988;4.644;2023-01-24T11:15:59;104139.81;;;2.76;80.48
38630;BME280;24384;51.988;4.644;2023-01-24T11:18:29;104136.63;;;2.81;80.40
38630;BME280;24384;51.988;4.644;2023-01-24T11:21:11;104133.88;;;2.62;81.51
38630;BME280;24384;51.988;4.644;2023-01-24T11:23:37;104147.38;;;2.55;80.07
38630;BME280;24384;51.988;4.644;2023-01-24T11:26:04;104137.22;;;2.43;82.19
38630;BME280;24384;51.988;4.644;2023-01-24T11:28:36;104129.72;;;2.49;81.31
38630;BME280;24384;51.988;4.644;2023-01-24T11:31:14;104136.88;;;2.37;80.51
38630;BME280;24384;51.988;4.644;2023-01-24T11:51:07;104124.63;;;2.19;82.28
38630;BME280;24384;51.988;4.644;2023-01-24T11:53:58;104114.06;;;2.16;81.41
38630;BME280;24384;51.988;4.644;2023-01-24T11:56:45;104115.13;;;2.20;82.40
38630;BME280;24384;51.988;4.644;2023-01-24T11:59:34;104103.25;;;2.25;82.74
38630;BME280;24384;51.988;4.644;2023-01-24T12:10:42;104093.06;;;2.62;81.43
38630;BME280;24384;51.988;4.644;2023-01-24T12:16:04;104090.75;;;2.68;81.25
38630;BME280;24384;51.988;4.644;2023-01-24T12:21:12;104077.53;;;2.47;80.98
38630;BME280;24384;51.988;4.644;2023-01-24T12:26:27;104080.06;;;2.46;82.00
38630;BME280;24384;51.988;4.644;2023-01-24T12:31:29;104071.72;;;2.53;80.88
38630;BME280;24384;51.988;4.644;2023-01-24T12:34:12;104058.59;;;2.68;80.31
38630;BME280;24384;51.988;4.644;2023-01-24T12:36:46;104057.13;;;2.73;80.92
38630;BME280;24384;51.988;4.644;2023-01-24T12:39:21;104053.88;;;2.77;80.56
38630;BME280;24384;51.988;4.644;2023-01-24T12:42:00;104065.25;;;2.79;79.51
38630;BME280;24384;51.988;4.644;2023-01-24T12:44:38;104052.59;;;2.69;80.18
38630;BME280;24384;51.988;4.644;2023-01-24T12:47:30;104054.88;;;2.63;80.71
38630;BME280;24384;51.988;4.644;2023-01-24T12:50:27;104051.63;;;2.50;83.02
38630;BME280;24384;51.988;4.644;2023-01-24T12:53:12;104060.75;;;2.59;81.22
38630;BME280;24384;51.988;4.644;2023-01-24T12:55:44;104056.19;;;2.55;80.50
38630;BME280;24384;51.988;4.644;2023-01-24T12:58:19;104057.56;;;2.48;81.08
38630;BME280;24384;51.988;4.644;2023-01-24T13:06:25;104058.22;;;2.44;81.43
38630;BME280;24384;51.988;4.644;2023-01-24T13:11:45;104052.13;;;2.60;79.95
38630;BME280;24384;51.988;4.644;2023-01-24T13:14:33;104049.50;;;2.60;80.69
38630;BME280;24384;51.988;4.644;2023-01-24T13:19:50;104043.78;;;2.67;80.66
38630;BME280;24384;51.988;4.644;2023-01-24T13:27:39;104039.94;;;2.77;79.48
38630;BME280;24384;51.988;4.644;2023-01-24T13:32:42;104031.44;;;2.63;79.58
38630;BME280;24384;51.988;4.644;2023-01-24T13:35:17;104027.09;;;2.63;79.45
38630;BME280;24384;51.988;4.644;2023-01-24T13:37:48;104035.06;;;2.66;79.59
38630;BME280;24384;51.988;4.644;2023-01-24T13:42:40;104022.19;;;2.69;80.33
38630;BME280;24384;51.988;4.644;2023-01-24T13:47:56;104030.09;;;2.71;80.89
38630;BME280;24384;51.988;4.644;2023-01-24T13:50:23;104029.53;;;2.77;79.77
38630;BME280;24384;51.988;4.644;2023-01-24T13:52:50;104034.19;;;2.66;80.82
38630;BME280;24384;51.988;4.644;2023-01-24T13:57:45;104030.44;;;2.61;80.19
38630;BME280;24384;51.988;4.644;2023-01-24T14:03:25;104038.56;;;2.67;80.88
38630;BME280;24384;51.988;4.644;2023-01-24T14:05:55;104031.06;;;2.73;80.27
38630;BME280;24384;51.988;4.644;2023-01-24T14:18:59;104019.78;;;2.56;82.36
38630;BME280;24384;51.988;4.644;2023-01-24T14:24:52;104026.38;;;2.49;82.28
38630;BME280;24384;51.988;4.644;2023-01-24T14:27:19;104023.78;;;2.33;80.12
38630;BME280;24384;51.988;4.644;2023-01-24T14:29:48;104018.75;;;2.36;80.59
38630;BME280;24384;51.988;4.644;2023-01-24T14:32:23;104020.63;;;2.39;81.26
38630;BME280;24384;51.988;4.644;2023-01-24T14:35:11;104021.66;;;2.42;80.88
38630;BME280;24384;51.988;4.644;2023-01-24T14:37:39;104030.00;;;2.35;81.56
38630;BME280;24384;51.988;4.644;2023-01-24T14:40:22;104025.75;;;2.37;81.12
38630;BME280;24384;51.988;4.644;2023-01-24T14:42:49;104033.97;;;2.45;80.94
38630;BME280;24384;51.988;4.644;2023-01-24T14:45:17;104025.28;;;2.44;80.95
38630;BME280;24384;51.988;4.644;2023-01-24T14:47:46;104024.97;;;2.56;81.28
38630;BME280;24384;51.988;4.644;2023-01-24T14:50:48;104020.94;;;2.45;81.90
38630;BME280;24384;51.988;4.644;2023-01-24T14:55:51;104024.59;;;2.48;80.67
38630;BME280;24384;51.988;4.644;2023-01-24T14:58:21;104026.81;;;2.41;79.40
38630;BME280;24384;51.988;4.644;2023-01-24T15:00:48;104022.34;;;2.22;82.72
38630;BME280;24384;51.988;4.644;2023-01-24T15:03:21;104022.66;;;2.28;82.47